Time;durP1;ratioP1;P1;durP2;ratioP2;P2;SDS_P1;SDS_P2;PMS_P1;PMS_P2;Temp;Humidity;BMP_temperature;BMP_pressure;BME280_temperature;BME280_humidity;BME280_pressure;Samples;Min_cycle;Max_cycle;Signal;HPM_P1;HPM_P2
2023/10/02 00:01:56;;;;;;;10.57;7.70;;;20.20;1.00;;;;;;6309299;22;20383;-40
2023/10/02 00:04:24;;;;;;;10.77;8.23;;;20.20;1.00;;;;;;6308973;22;20374;-43
2023/10/02 00:07:05;;;;;;;12.00;8.80;;;20.20;1.00;;;;;;6308247;22;20374;-39
2023/10/02 00:09:34;;;;;;;11.17;8.30;;;20.20;1.00;;;;;;6308345;22;20776;-42
2023/10/02 00:12:01;;;;;;;11.57;7.83;;;20.20;1.00;;;;;;6308286;22;20971;-42
2023/10/02 00:14:35;;;;;;;12.43;8.87;;;20.20;1.00;;;;;;6308458;22;20366;-41
2023/10/02 00:19:39;;;;;;;11.87;7.67;;;20.10;1.00;;;;;;6281028;22;20438;-40
2023/10/02 00:25:19;;;;;;;10.50;8.00;;;20.20;1.00;;;;;;6240558;22;20398;-42
2023/10/02 00:27:54;;;;;;;11.50;8.30;;;20.10;1.00;;;;;;6308904;22;20379;-42
2023/10/02 00:30:30;;;;;;;10.23;7.53;;;20.10;1.00;;;;;;6282231;22;20494;-41
2023/10/02 00:32:56;;;;;;;10.67;8.10;;;20.10;1.00;;;;;;6309879;22;20424;-42
2023/10/02 00:35:22;;;;;;;11.30;8.00;;;20.10;1.00;;;;;;6282527;22;20394;-49
2023/10/02 00:37:48;;;;;;;12.10;8.43;;;20.10;1.00;;;;;;6307399;22;20550;-42
2023/10/02 00:40:20;;;;;;;10.90;8.70;;;20.10;1.00;;;;;;6306850;22;20401;-43
2023/10/02 00:42:59;;;;;;;14.00;8.77;;;20.10;1.00;;;;;;6308251;22;20379;-42
2023/10/02 00:45:30;;;;;;;13.00;8.37;;;20.10;1.00;;;;;;6309019;22;20366;-39
2023/10/02 00:48:25;;;;;;;14.43;8.50;;;20.10;1.00;;;;;;6256165;22;20430;-42
2023/10/02 00:50:49;;;;;;;13.07;8.57;;;20.10;1.00;;;;;;6308517;22;20650;-41
2023/10/02 00:53:16;;;;;;;10.90;7.90;;;20.10;1.00;;;;;;6308255;22;20389;-41
2023/10/02 00:55:45;;;;;;;13.77;8.90;;;20.10;1.00;;;;;;6280851;22;20385;-42
2023/10/02 00:58:11;;;;;;;11.77;8.50;;;20.10;1.00;;;;;;6280589;22;20358;-41
2023/10/02 01:00:37;;;;;;;10.83;7.87;;;20.10;1.00;;;;;;6306880;22;20398;-40
2023/10/02 01:03:15;;;;;;;11.17;8.33;;;20.10;1.00;;;;;;6307776;22;20473;-40
2023/10/02 01:05:41;;;;;;;11.70;8.17;;;20.10;1.00;;;;;;6307219;22;20386;-42
2023/10/02 01:08:25;;;;;;;12.73;8.43;;;20.10;1.00;;;;;;6305126;22;20468;-40
2023/10/02 01:10:59;;;;;;;13.87;8.60;;;20.10;1.00;;;;;;6306895;22;20382;-39
2023/10/02 01:13:34;;;;;;;12.00;8.20;;;20.10;1.00;;;;;;6308018;22;20379;-40
2023/10/02 01:16:09;;;;;;;11.50;8.10;;;20.10;1.00;;;;;;6307898;22;20347;-41
2023/10/02 01:18:38;;;;;;;12.27;8.80;;;20.10;1.00;;;;;;6306780;22;20430;-41
2023/10/02 01:21:11;;;;;;;12.70;8.83;;;20.10;1.00;;;;;;6308233;22;20378;-40
2023/10/02 01:24:06;;;;;;;12.57;8.30;;;20.10;1.00;;;;;;6308978;22;20681;-40
2023/10/02 01:26:32;;;;;;;12.63;8.60;;;20.10;1.00;;;;;;6308345;22;20398;-41
2023/10/02 01:29:01;;;;;;;12.20;8.40;;;20.00;1.00;;;;;;6280995;22;20386;-40
2023/10/02 01:31:41;;;;;;;11.77;8.60;;;20.00;1.00;;;;;;6308644;22;20386;-39
2023/10/02 01:34:06;;;;;;;13.17;9.10;;;20.00;1.00;;;;;;6307907;22;20484;-41
2023/10/02 01:36:33;;;;;;;10.00;7.83;;;20.00;1.00;;;;;;6307706;22;20809;-40
2023/10/02 01:39:15;;;;;;;10.10;7.87;;;20.00;1.00;;;;;;6307048;22;20197;-41
2023/10/02 01:41:52;;;;;;;10.43;7.80;;;20.00;1.00;;;;;;6306613;22;20455;-40
2023/10/02 01:44:22;;;;;;;11.50;8.40;;;20.00;1.00;;;;;;6307975;22;20469;-39
2023/10/02 01:46:52;;;;;;;11.93;8.70;;;20.00;1.00;;;;;;6305750;22;20480;-41
2023/10/02 01:49:26;;;;;;;12.80;9.30;;;20.00;1.00;;;;;;6307005;22;20668;-41
2023/10/02 01:51:55;;;;;;;11.87;9.03;;;19.90;1.00;;;;;;6306115;22;20867;-40
2023/10/02 01:54:22;;;;;;;12.20;8.83;;;19.90;1.00;;;;;;6307685;22;20719;-40
2023/10/02 01:56:49;;;;;;;11.70;8.40;;;19.90;1.00;;;;;;6308590;22;20436;-39
2023/10/02 01:59:18;;;;;;;12.60;8.47;;;19.90;1.00;;;;;;6308253;22;20504;-40
2023/10/02 02:01:52;;;;;;;10.97;7.83;;;19.90;1.00;;;;;;6308727;22;20378;-41
2023/10/02 02:04:21;;;;;;;12.10;9.30;;;19.90;1.00;;;;;;6281855;22;20393;-39
2023/10/02 02:06:57;;;;;;;12.97;8.57;;;19.90;1.00;;;;;;6307404;22;20347;-38
2023/10/02 02:09:24;;;;;;;10.10;7.90;;;19.90;1.00;;;;;;6307873;22;20393;-39
2023/10/02 02:12:12;;;;;;;10.70;8.30;;;19.90;1.00;;;;;;6307899;22;20801;-40
2023/10/02 02:14:41;;;;;;;13.10;8.63;;;19.90;1.00;;;;;;6308857;22;20472;-39
2023/10/02 02:17:10;;;;;;;11.93;8.37;;;19.90;1.00;;;;;;6307968;22;20477;-39
2023/10/02 02:19:37;;;;;;;12.27;8.90;;;19.90;1.00;;;;;;6308561;22;20755;-42
2023/10/02 02:22:03;;;;;;;11.17;7.67;;;19.90;1.00;;;;;;6308263;22;20445;-43
2023/10/02 02:24:34;;;;;;;12.00;8.40;;;19.90;1.00;;;;;;6308286;22;20374;-41
2023/10/02 02:27:04;;;;;;;14.23;10.00;;;19.90;1.00;;;;;;6308611;22;20406;-40
2023/10/02 02:29:30;;;;;;;13.80;9.30;;;19.90;1.00;;;;;;6307626;22;20627;-43
2023/10/02 02:31:56;;;;;;;12.27;8.33;;;19.90;1.00;;;;;;6308020;22;20386;-41
2023/10/02 02:34:23;;;;;;;12.37;8.73;;;19.80;1.00;;;;;;6308137;22;20531;-39
2023/10/02 02:36:50;;;;;;;13.53;8.87;;;19.80;1.00;;;;;;6307491;22;20365;-41
2023/10/02 02:39:22;;;;;;;14.17;10.97;;;19.80;1.00;;;;;;6280686;22;20554;-43
2023/10/02 02:42:18;;;;;;;13.80;9.30;;;19.80;1.00;;;;;;6307840;22;20378;-42
2023/10/02 02:44:50;;;;;;;13.50;9.47;;;19.80;1.00;;;;;;6307057;22;20378;-39
2023/10/02 02:47:23;;;;;;;12.30;8.97;;;19.80;1.00;;;;;;6307508;22;20454;-41
2023/10/02 02:49:51;;;;;;;11.97;8.83;;;19.80;1.00;;;;;;6308994;22;20390;-40
2023/10/02 02:52:24;;;;;;;9.87;7.83;;;19.80;1.00;;;;;;6309314;22;20397;-39
2023/10/02 02:54:58;;;;;;;14.70;8.97;;;19.80;1.00;;;;;;6309744;22;20363;-40
2023/10/02 02:57:25;;;;;;;11.60;8.37;;;19.80;1.00;;;;;;6310143;22;20445;-39
2023/10/02 03:03:29;;;;;;;13.40;10.07;;;19.80;1.00;;;;;;6183292;23;20608;-42
2023/10/02 03:05:52;;;;;;;12.30;8.40;;;19.80;1.00;;;;;;6300837;22;20530;-43
2023/10/02 03:08:18;;;;;;;11.47;8.50;;;19.80;1.00;;;;;;6309933;22;20397;-41
2023/10/02 03:10:46;;;;;;;13.53;9.50;;;19.80;1.00;;;;;;6309412;22;20382;-44
2023/10/02 03:13:17;;;;;;;13.40;9.53;;;19.80;1.00;;;;;;6307796;22;20135;-39
2023/10/02 03:15:47;;;;;;;12.40;9.70;;;19.70;1.00;;;;;;6309911;22;20350;-39
2023/10/02 03:18:31;;;;;;;12.90;9.63;;;19.70;1.00;;;;;;6277919;22;20439;-39
2023/10/02 03:20:58;;;;;;;10.53;8.10;;;19.70;1.00;;;;;;6277949;22;20759;-39
2023/10/02 03:23:30;;;;;;;13.30;9.37;;;19.70;1.00;;;;;;6278776;22;20419;-40
2023/10/02 03:25:56;;;;;;;11.17;9.53;;;19.70;1.00;;;;;;6278006;22;20494;-41
2023/10/02 03:28:31;;;;;;;11.80;9.37;;;19.70;1.00;;;;;;6277365;22;20387;-42
2023/10/02 03:30:58;;;;;;;10.83;8.23;;;19.60;1.00;;;;;;6278461;22;20438;-41
2023/10/02 03:33:30;;;;;;;10.33;8.33;;;19.60;1.00;;;;;;6277768;22;20351;-41
2023/10/02 03:38:41;;;;;;;9.13;7.70;;;19.60;1.00;;;;;;6281611;22;20457;-43
2023/10/02 03:41:09;;;;;;;11.30;9.00;;;19.60;1.00;;;;;;6278880;22;20371;-41
2023/10/02 03:43:35;;;;;;;11.60;8.57;;;19.60;1.00;;;;;;6278741;22;20390;-41
2023/10/02 03:46:13;;;;;;;9.87;8.13;;;19.60;1.00;;;;;;6275643;22;20454;-41
2023/10/02 03:48:39;;;;;;;9.60;7.40;;;19.50;1.00;;;;;;6275638;22;20382;-40
2023/10/02 03:51:06;;;;;;;13.50;9.53;;;19.50;1.00;;;;;;6277142;22;20383;-40
2023/10/02 03:53:34;;;;;;;14.10;9.27;;;19.50;1.00;;;;;;6276643;22;20778;-43
2023/10/02 03:58:48;;;;;;;12.83;8.70;;;19.50;1.00;;;;;;6275289;22;20379;-39
2023/10/02 04:01:17;;;;;;;12.67;9.10;;;19.50;1.00;;;;;;6273850;22;20536;-41
2023/10/02 04:04:44;;;;;;;11.40;8.23;;;19.50;1.00;;;;;;6273329;22;20394;-42
2023/10/02 04:06:42;;;;;;;15.83;9.27;;;19.40;1.00;;;;;;6253317;22;20383;-41
2023/10/02 04:11:48;;;;;;;11.73;9.50;;;19.40;1.00;;;;;;6273115;22;20394;-41
2023/10/02 04:14:17;;;;;;;14.13;9.63;;;19.40;1.00;;;;;;6274934;22;20414;-39
2023/10/02 04:16:51;;;;;;;12.33;9.40;;;19.40;1.00;;;;;;6276128;22;20788;-42
2023/10/02 04:19:23;;;;;;;12.43;9.10;;;19.40;1.00;;;;;;6304007;22;20657;-39
2023/10/02 04:21:51;;;;;;;10.93;8.43;;;19.40;1.00;;;;;;6302563;22;20441;-40
2023/10/02 04:24:23;;;;;;;15.43;9.10;;;19.30;1.00;;;;;;6303308;22;20385;-44
2023/10/02 04:26:54;;;;;;;11.60;8.40;;;19.30;1.00;;;;;;6304780;22;20394;-41
2023/10/02 04:29:28;;;;;;;11.43;9.10;;;19.30;1.00;;;;;;6304146;22;20391;-40
2023/10/02 04:34:46;;;;;;;12.00;9.20;;;19.30;1.00;;;;;;6304623;22;20389;-40
2023/10/02 04:37:20;;;;;;;13.40;9.37;;;19.20;1.00;;;;;;6303955;22;20423;-43
2023/10/02 04:42:25;;;;;;;14.83;10.33;;;19.20;1.00;;;;;;6305560;22;20425;-39
2023/10/02 04:45:20;;;;;;;14.40;10.13;;;19.20;1.00;;;;;;6305169;22;20382;-45
2023/10/02 04:47:40;;;;;;;13.37;9.80;;;19.20;1.00;;;;;;6304492;22;20400;-40
2023/10/02 04:55:24;;;;;;;13.40;9.57;;;19.20;1.00;;;;;;6308479;22;20388;-41
2023/10/02 04:58:19;;;;;;;13.83;9.57;;;19.20;1.00;;;;;;6307035;22;20362;-39
2023/10/02 05:03:34;;;;;;;16.47;9.17;;;19.10;1.00;;;;;;6315960;22;20362;-41
2023/10/02 05:06:03;;;;;;;13.30;8.87;;;19.10;1.00;;;;;;6307044;22;20382;-40
2023/10/02 05:08:40;;;;;;;13.87;9.60;;;19.10;1.00;;;;;;6305734;22;20813;-41
2023/10/02 05:11:08;;;;;;;13.03;9.23;;;19.10;1.00;;;;;;6303836;22;20646;-41
2023/10/02 05:16:26;;;;;;;12.13;9.43;;;19.00;1.00;;;;;;6306475;22;20386;-40
2023/10/02 05:18:53;;;;;;;14.80;9.43;;;19.00;1.00;;;;;;6305137;22;20530;-41
2023/10/02 05:21:19;;;;;;;13.63;9.40;;;19.00;1.00;;;;;;6303887;22;20382;-41
2023/10/02 05:24:00;;;;;;;14.03;10.43;;;19.00;1.00;;;;;;6303603;22;20417;-40
2023/10/02 05:26:35;;;;;;;12.90;9.90;;;19.00;1.00;;;;;;6304422;22;20389;-38
2023/10/02 05:29:05;;;;;;;12.30;9.23;;;19.00;1.00;;;;;;6303837;22;20385;-40
2023/10/02 05:31:35;;;;;;;13.77;9.80;;;19.00;1.00;;;;;;6302850;22;20386;-41
2023/10/02 05:34:09;;;;;;;16.47;10.40;;;19.00;1.00;;;;;;6304368;22;20364;-40
2023/10/02 05:36:54;;;;;;;15.37;9.60;;;19.00;1.00;;;;;;6280371;22;20357;-41
2023/10/02 05:39:31;;;;;;;15.60;10.20;;;19.00;1.00;;;;;;6303723;22;20887;-40
2023/10/02 05:42:05;;;;;;;16.33;10.20;;;19.10;1.00;;;;;;6303883;22;20381;-39
2023/10/02 05:44:35;;;;;;;13.90;9.13;;;19.10;1.00;;;;;;6302170;22;20829;-39
2023/10/02 05:47:07;;;;;;;12.50;9.67;;;19.10;1.00;;;;;;6276727;22;20392;-39
2023/10/02 05:49:36;;;;;;;13.17;9.77;;;19.10;1.00;;;;;;6279643;22;20389;-40
2023/10/02 05:52:03;;;;;;;15.80;9.67;;;19.10;1.00;;;;;;6305600;22;20465;-39
2023/10/02 05:54:29;;;;;;;17.20;9.83;;;19.20;1.00;;;;;;6306700;22;20367;-40
2023/10/02 05:57:14;;;;;;;14.20;9.70;;;19.10;1.00;;;;;;6307627;22;20377;-39
2023/10/02 05:59:45;;;;;;;15.13;9.90;;;19.20;1.00;;;;;;6283394;22;20544;-40
2023/10/02 06:02:19;;;;;;;15.70;10.30;;;19.30;1.00;;;;;;6278484;22;20379;-39
2023/10/02 06:04:47;;;;;;;13.33;10.17;;;19.30;1.00;;;;;;6303654;22;20412;-40
2023/10/02 06:07:43;;;;;;;12.87;9.73;;;19.40;1.00;;;;;;6276039;22;20347;-39
2023/10/02 06:10:18;;;;;;;14.30;9.63;;;19.50;1.00;;;;;;6303048;22;20669;-40
2023/10/02 06:12:46;;;;;;;15.63;9.60;;;19.60;1.00;;;;;;6302192;22;20365;-39
2023/10/02 06:17:58;;;;;;;14.23;9.87;;;19.90;1.00;;;;;;6303293;22;20428;-39
2023/10/02 06:20:24;;;;;;;17.60;11.33;;;20.10;1.00;;;;;;6303913;22;20440;-39
2023/10/02 06:22:55;;;;;;;14.03;9.00;;;20.30;1.00;;;;;;6305008;22;20816;-38
2023/10/02 06:25:21;;;;;;;12.73;9.67;;;20.40;1.00;;;;;;6305134;22;20378;-41
2023/10/02 06:27:47;;;;;;;12.07;9.27;;;20.60;1.00;;;;;;6306646;22;20760;-39
2023/10/02 06:30:16;;;;;;;12.97;9.20;;;20.80;1.00;;;;;;6305725;22;20159;-39
2023/10/02 06:32:55;;;;;;;16.97;10.50;;;20.80;1.00;;;;;;6306872;22;20761;-41
2023/10/02 06:35:24;;;;;;;16.80;9.30;;;21.00;1.00;;;;;;6304233;22;20389;-40
2023/10/02 06:37:51;;;;;;;13.00;8.80;;;21.10;1.00;;;;;;6278617;22;20386;-40
2023/10/02 06:40:21;;;;;;;18.10;10.97;;;21.10;1.00;;;;;;6305257;22;20717;-39
2023/10/02 06:42:51;;;;;;;12.83;9.33;;;21.20;1.00;;;;;;6306055;22;20351;-41
2023/10/02 06:45:18;;;;;;;14.23;9.43;;;21.40;1.00;;;;;;6305403;22;20544;-41
2023/10/02 06:47:44;;;;;;;15.70;11.27;;;21.50;1.00;;;;;;6305777;22;20377;-41
2023/10/02 06:50:34;;;;;;;14.87;9.90;;;21.60;1.00;;;;;;6307440;22;20455;-39
2023/10/02 06:52:59;;;;;;;17.30;10.30;;;21.80;1.00;;;;;;6284200;22;20412;-40
2023/10/02 06:55:26;;;;;;;15.77;10.47;;;22.00;1.00;;;;;;6307264;22;20439;-40
2023/10/02 06:57:56;;;;;;;22.13;10.40;;;22.10;1.00;;;;;;6304972;22;20173;-39
2023/10/02 07:00:25;;;;;;;22.50;11.83;;;22.30;1.00;;;;;;6304587;22;20651;-40
2023/10/02 07:02:56;;;;;;;21.73;10.63;;;22.50;1.00;;;;;;6280482;22;20417;-40
2023/10/02 07:05:34;;;;;;;19.17;10.00;;;22.60;1.00;;;;;;6306175;22;20399;-41
2023/10/02 07:08:17;;;;;;;19.97;11.20;;;22.80;1.00;;;;;;6307484;22;20382;-41
2023/10/02 07:10:43;;;;;;;18.20;11.53;;;23.00;1.00;;;;;;6281791;22;20393;-41
2023/10/02 07:13:22;;;;;;;17.80;11.63;;;23.10;1.00;;;;;;6306698;22;20465;-41
2023/10/02 07:15:59;;;;;;;15.87;10.80;;;23.30;1.00;;;;;;6279620;22;20381;-39
2023/10/02 07:18:49;;;;;;;15.60;11.23;;;23.50;1.00;;;;;;6307116;22;20702;-40
2023/10/02 07:21:13;;;;;;;18.20;12.40;;;23.60;1.00;;;;;;6306721;22;20413;-42
2023/10/02 07:23:38;;;;;;;19.00;11.50;;;23.80;1.00;;;;;;6309158;22;20390;-40
2023/10/02 07:26:05;;;;;;;16.93;11.27;;;23.90;1.00;;;;;;6308783;22;20390;-39
2023/10/02 07:28:31;;;;;;;14.70;11.53;;;24.00;1.00;;;;;;6307779;22;20394;-43
2023/10/02 07:30:59;;;;;;;16.53;11.03;;;24.10;1.00;;;;;;6306460;22;20350;-41
2023/10/02 07:33:25;;;;;;;25.80;12.73;;;24.20;1.00;;;;;;6307638;22;20347;-38
2023/10/02 07:35:54;;;;;;;23.07;11.87;;;24.30;1.00;;;;;;6305690;22;20393;-40
2023/10/02 07:38:30;;;;;;;25.90;14.03;;;24.50;1.00;;;;;;6307205;22;20378;-40
2023/10/02 07:41:06;;;;;;;30.93;13.17;;;24.70;1.00;;;;;;6305557;22;20425;-42
2023/10/02 07:43:32;;;;;;;32.30;13.70;;;24.90;1.00;;;;;;6307297;22;20420;-40
2023/10/02 07:46:06;;;;;;;21.33;12.60;;;25.10;1.00;;;;;;6306725;22;20708;-43
2023/10/02 07:48:35;;;;;;;22.07;14.00;;;25.20;1.00;;;;;;6306935;22;20358;-39
2023/10/02 07:51:01;;;;;;;26.87;14.83;;;25.40;1.00;;;;;;6306825;22;20393;-41
2023/10/02 07:53:39;;;;;;;24.43;13.23;;;25.60;1.00;;;;;;6306852;22;20650;-42
2023/10/02 07:56:12;;;;;;;23.80;13.10;;;25.80;1.00;;;;;;6306152;22;20917;-40
2023/10/02 07:58:39;;;;;;;23.73;13.50;;;26.10;1.00;;;;;;6306160;22;20385;-40
2023/10/02 08:01:11;;;;;;;30.00;13.97;;;26.30;1.00;;;;;;6306519;22;20386;-39
2023/10/02 08:03:43;;;;;;;27.73;13.20;;;26.50;1.00;;;;;;6280401;22;20408;-41
2023/10/02 08:06:21;;;;;;;32.53;13.50;;;26.70;1.00;;;;;;6305866;22;20777;-40
2023/10/02 08:09:35;;;;;;;23.93;12.93;;;27.00;1.00;;;;;;6306466;22;20382;-42
2023/10/02 08:11:35;;;;;;;19.90;12.63;;;27.20;1.00;;;;;;6279891;22;20504;-42
2023/10/02 08:14:02;;;;;;;20.87;12.57;;;27.50;1.00;;;;;;6303480;22;20488;-39
2023/10/02 08:16:32;;;;;;;22.40;13.37;;;27.80;1.00;;;;;;6303978;22;20469;-40
2023/10/02 08:19:01;;;;;;;22.40;13.10;;;28.00;1.00;;;;;;6302375;22;20858;-39
2023/10/02 08:21:36;;;;;;;24.70;13.00;;;28.20;1.00;;;;;;6303176;22;20441;-40
2023/10/02 08:24:03;;;;;;;22.77;12.97;;;28.50;1.00;;;;;;6303017;22;20701;-41
2023/10/02 08:26:38;;;;;;;17.90;13.83;;;28.70;1.00;;;;;;6274985;22;20382;-40
2023/10/02 08:29:06;;;;;;;21.53;13.40;;;28.90;1.00;;;;;;6302014;22;20769;-41
2023/10/02 08:31:32;;;;;;;19.53;13.47;;;29.20;1.00;;;;;;6300865;22;20390;-42
2023/10/02 08:34:05;;;;;;;18.37;13.03;;;29.50;1.00;;;;;;6302494;22;20567;-40
2023/10/02 08:36:34;;;;;;;20.40;13.53;;;29.70;1.00;;;;;;6301189;22;20604;-40
2023/10/02 08:39:00;;;;;;;18.47;13.00;;;29.90;1.00;;;;;;6302890;22;20529;-40
2023/10/02 08:41:27;;;;;;;23.33;13.97;;;30.20;1.00;;;;;;6305036;22;20410;-42
2023/10/02 08:43:54;;;;;;;21.30;14.57;;;30.40;1.00;;;;;;6277356;22;20430;-41
2023/10/02 08:46:21;;;;;;;24.50;13.87;;;30.70;1.00;;;;;;6305194;22;20390;-40
2023/10/02 08:48:56;;;;;;;28.93;16.30;;;30.90;1.00;;;;;;6303361;22;20427;-38
2023/10/02 08:51:35;;;;;;;20.93;14.90;;;31.20;1.00;;;;;;6302503;22;20356;-38
2023/10/02 08:54:11;;;;;;;40.57;15.63;;;31.50;1.00;;;;;;6304100;22;20447;-38
2023/10/02 08:56:48;;;;;;;40.90;17.87;;;31.70;1.00;;;;;;6303316;22;20482;-39
2023/10/02 08:59:18;;;;;;;41.03;16.50;;;32.00;1.00;;;;;;6303380;22;20433;-37
2023/10/02 09:01:47;;;;;;;26.83;15.00;;;32.30;1.00;;;;;;6302430;22;20349;-39
2023/10/02 09:07:14;;;;;;;25.43;14.80;;;32.80;1.00;;;;;;6301923;22;20344;-40
2023/10/02 09:09:45;;;;;;;21.10;13.70;;;33.10;1.00;;;;;;6300310;22;20797;-41
2023/10/02 09:12:15;;;;;;;24.40;14.50;;;33.40;1.00;;;;;;6303430;22;20390;-39
2023/10/02 09:14:41;;;;;;;23.47;14.33;;;33.70;1.00;;;;;;6302576;22;20480;-41
2023/10/02 09:17:22;;;;;;;24.30;14.30;;;33.90;1.00;;;;;;6299285;22;20887;-39
2023/10/02 09:19:54;;;;;;;23.20;14.27;;;34.20;1.00;;;;;;6300804;22;20524;-41
2023/10/02 09:22:23;;;;;;;23.07;14.87;;;34.60;1.00;;;;;;6273711;22;20387;-38
2023/10/02 09:24:58;;;;;;;26.37;15.60;;;34.80;1.00;;;;;;6298717;22;20555;-40
2023/10/02 09:27:27;;;;;;;20.47;15.43;;;35.10;1.00;;;;;;6298696;22;20331;-39
2023/10/02 09:30:17;;;;;;;19.47;13.93;;;35.30;1.00;;;;;;6299992;22;20352;-38
2023/10/02 09:32:49;;;;;;;21.03;14.00;;;35.40;1.00;;;;;;6278790;22;20378;-38
2023/10/02 09:35:50;;;;;;;20.63;13.90;;;35.70;1.00;;;;;;6301346;22;20507;-39
2023/10/02 09:38:16;;;;;;;20.20;14.87;;;35.90;1.00;;;;;;6278375;22;20394;-39
2023/10/02 09:43:31;;;;;;;21.03;15.20;;;36.40;1.00;;;;;;6302172;22;20463;-38
2023/10/02 09:46:05;;;;;;;22.13;15.03;;;36.70;1.00;;;;;;6301636;22;20354;-39
2023/10/02 09:48:46;;;;;;;21.27;15.13;;;36.90;1.00;;;;;;6277536;22;20573;-39
2023/10/02 09:51:38;;;;;;;20.40;15.67;;;37.10;1.00;;;;;;6303348;22;20409;-40
2023/10/02 09:54:19;;;;;;;16.40;13.80;;;37.30;1.00;;;;;;6303505;22;20463;-40
2023/10/02 09:57:11;;;;;;;31.73;15.53;;;37.60;1.00;;;;;;6301960;22;20357;-42
2023/10/02 09:59:47;;;;;;;20.50;16.47;;;37.50;1.00;;;;;;6301505;22;20422;-39
2023/10/02 10:05:45;;;;;;;21.13;17.40;;;37.40;1.00;;;;;;6304050;22;20420;-38
2023/10/02 10:11:15;;;;;;;19.40;16.83;;;37.10;1.00;;;;;;6302525;22;20364;-42
2023/10/02 10:13:46;;;;;;;19.03;17.03;;;37.10;1.00;;;;;;6283308;22;20376;-39
2023/10/02 10:16:21;;;;;;;20.90;17.70;;;37.20;1.00;;;;;;6304198;22;20354;-39
2023/10/02 10:22:03;;;;;;;22.90;18.20;;;37.20;1.00;;;;;;6304968;22;20349;-39
2023/10/02 10:27:39;;;;;;;22.50;17.63;;;37.30;1.00;;;;;;6279361;22;20386;-38
2023/10/02 10:30:33;;;;;;;22.33;18.20;;;37.60;1.00;;;;;;6274909;22;20428;-38
2023/10/02 10:35:49;;;;;;;21.37;18.27;;;38.20;1.00;;;;;;6304567;22;20393;-42
2023/10/02 10:38:25;;;;;;;19.60;17.50;;;38.20;1.00;;;;;;6303244;22;20393;-38
2023/10/02 10:40:59;;;;;;;21.70;18.97;;;38.40;1.00;;;;;;6306702;22;20388;-41
2023/10/02 10:43:43;;;;;;;20.00;17.90;;;38.60;1.00;;;;;;6279369;22;20658;-40
2023/10/02 10:46:29;;;;;;;21.90;18.90;;;38.90;1.00;;;;;;6255283;22;20378;-39
2023/10/02 10:49:10;;;;;;;20.67;18.50;;;38.90;1.00;;;;;;6277592;22;20390;-40
2023/10/02 10:51:39;;;;;;;21.30;19.03;;;38.90;1.00;;;;;;6304500;22;20340;-41
2023/10/02 10:54:30;;;;;;;19.70;17.60;;;39.00;1.00;;;;;;6304646;22;20398;-40
2023/10/02 10:56:58;;;;;;;19.70;17.60;;;39.30;1.00;;;;;;6304924;22;20397;-41
2023/10/02 10:59:32;;;;;;;21.10;18.90;;;39.60;1.00;;;;;;6302271;22;20591;-42
2023/10/02 11:02:16;;;;;;;24.90;19.73;;;39.60;1.00;;;;;;6277261;22;20911;-40
2023/10/02 11:04:49;;;;;;;24.17;20.90;;;39.50;1.00;;;;;;6278589;22;20389;-41
2023/10/02 11:07:25;;;;;;;24.37;20.63;;;39.60;1.00;;;;;;6306005;22;20363;-43
2023/10/02 11:10:19;;;;;;;24.70;20.50;;;39.90;1.00;;;;;;6301534;22;20536;-41
2023/10/02 11:12:57;;;;;;;23.47;20.73;;;40.20;1.00;;;;;;6302936;22;20724;-41
2023/10/02 11:18:20;;;;;;;27.63;21.80;;;40.60;1.00;;;;;;6300882;22;20433;-39
2023/10/02 11:20:55;;;;;;;25.90;23.10;;;40.50;1.00;;;;;;6275389;22;20519;-38
2023/10/02 11:23:41;;;;;;;35.60;23.97;;;40.20;1.00;;;;;;6277427;22;20407;-41
2023/10/02 11:26:14;;;;;;;31.23;22.60;;;40.10;1.00;;;;;;6276778;22;20383;-42
2023/10/02 11:28:49;;;;;;;28.80;23.77;;;40.30;1.00;;;;;;6301672;22;20382;-42
2023/10/02 11:31:32;;;;;;;28.60;23.70;;;40.80;1.00;;;;;;6301817;22;20421;-39
2023/10/02 11:34:06;;;;;;;26.67;22.70;;;41.00;1.00;;;;;;6302530;22;20347;-39
2023/10/02 11:36:37;;;;;;;29.20;23.97;;;41.40;1.00;;;;;;6300575;22;20371;-40
2023/10/02 11:39:16;;;;;;;26.90;22.20;;;41.50;1.00;;;;;;6300512;22;20536;-40
2023/10/02 11:41:42;;;;;;;25.87;23.10;;;41.70;1.00;;;;;;6296941;22;20378;-38
2023/10/02 11:44:11;;;;;;;30.07;23.33;;;41.90;1.00;;;;;;6299492;22;20384;-39
2023/10/02 11:46:37;;;;;;;27.63;24.60;;;41.90;1.00;;;;;;6297617;22;20379;-39
2023/10/02 11:49:03;;;;;;;26.37;23.57;;;41.90;1.00;;;;;;6301540;22;20355;-44
2023/10/02 11:51:29;;;;;;;29.70;25.80;;;41.90;1.00;;;;;;6304703;22;20355;-39
2023/10/02 11:53:57;;;;;;;29.13;25.43;;;41.80;1.00;;;;;;6305441;22;20410;-40
2023/10/02 11:56:24;;;;;;;27.00;24.00;;;41.80;1.00;;;;;;6303800;22;20159;-41
2023/10/02 11:58:52;;;;;;;29.40;25.83;;;41.90;1.00;;;;;;6301508;22;20382;-38
2023/10/02 12:01:22;;;;;;;27.10;23.73;;;42.10;1.00;;;;;;6302204;22;20440;-40
2023/10/02 12:03:48;;;;;;;27.47;24.60;;;42.30;1.00;;;;;;6301036;22;20449;-38
2023/10/02 12:06:16;;;;;;;30.10;25.47;;;42.50;1.00;;;;;;6274458;22;20501;-39
2023/10/02 12:08:44;;;;;;;28.83;25.77;;;42.60;1.00;;;;;;6301876;22;20393;-39
2023/10/02 12:11:13;;;;;;;32.00;26.30;;;42.50;1.00;;;;;;6301855;22;20404;-41
2023/10/02 12:13:40;;;;;;;29.07;25.57;;;42.60;1.00;;;;;;6302177;22;20473;-41
2023/10/02 12:16:10;;;;;;;32.97;29.13;;;42.50;1.00;;;;;;6300651;22;20411;-41
2023/10/02 12:18:41;;;;;;;30.83;27.03;;;42.70;1.00;;;;;;6302008;22;20418;-40
2023/10/02 12:21:08;;;;;;;34.00;30.23;;;42.80;1.00;;;;;;6303727;22;20433;-39
2023/10/02 12:23:39;;;;;;;39.43;33.83;;;42.90;1.00;;;;;;6303783;22;20386;-42
2023/10/02 12:26:07;;;;;;;37.20;31.40;;;42.90;1.00;;;;;;6303286;22;20390;-41
2023/10/02 12:28:33;;;;;;;36.23;32.37;;;42.90;1.00;;;;;;6302996;22;20447;-43
2023/10/02 12:30:59;;;;;;;38.70;33.10;;;43.00;1.00;;;;;;6304949;22;20602;-40
2023/10/02 12:33:25;;;;;;;37.33;31.13;;;43.20;1.00;;;;;;6302035;22;20128;-39
2023/10/02 12:35:54;;;;;;;36.77;29.40;;;43.50;1.00;;;;;;6301270;22;20393;-40
2023/10/02 12:38:24;;;;;;;33.03;27.70;;;43.70;1.00;;;;;;6302424;22;20253;-39
2023/10/02 12:40:51;;;;;;;33.13;27.07;;;43.70;1.00;;;;;;6303660;22;20437;-40
2023/10/02 12:43:17;;;;;;;35.90;28.03;;;43.80;1.00;;;;;;6302517;22;20778;-42
2023/10/02 12:45:43;;;;;;;29.87;25.83;;;43.90;1.00;;;;;;6303771;22;20354;-41
2023/10/02 12:48:09;;;;;;;29.27;25.23;;;44.20;1.00;;;;;;6303587;22;20447;-38
2023/10/02 12:50:41;;;;;;;31.70;25.50;;;44.20;1.00;;;;;;6275035;22;20154;-40
2023/10/02 12:53:10;;;;;;;25.60;22.90;;;44.20;1.00;;;;;;6300879;22;20148;-39
2023/10/02 12:55:36;;;;;;;29.47;24.27;;;44.20;1.00;;;;;;6302008;22;20394;-39
2023/10/02 12:58:04;;;;;;;31.53;24.00;;;44.40;1.00;;;;;;6304201;22;20491;-41
2023/10/02 13:00:31;;;;;;;23.17;20.77;;;44.10;1.00;;;;;;6276134;22;20528;-40
2023/10/02 13:02:58;;;;;;;23.93;21.43;;;44.00;1.00;;;;;;6304141;22;20408;-41
2023/10/02 13:05:25;;;;;;;29.33;22.47;;;43.70;1.00;;;;;;6302417;22;20401;-42
2023/10/02 13:07:55;;;;;;;35.57;21.80;;;43.40;1.00;;;;;;6274984;22;20386;-40
2023/10/02 13:10:24;;;;;;;26.03;21.40;;;43.20;1.00;;;;;;6301909;22;20511;-41
2023/10/02 13:12:50;;;;;;;22.30;19.47;;;43.20;1.00;;;;;;6303569;22;20453;-40
2023/10/02 13:15:16;;;;;;;25.23;19.50;;;43.00;1.00;;;;;;6301645;22;20474;-42
2023/10/02 13:17:42;;;;;;;23.23;19.17;;;43.00;1.00;;;;;;6268801;22;20447;-40
2023/10/02 13:20:10;;;;;;;20.37;17.63;;;43.20;1.00;;;;;;6271756;22;20583;-41
2023/10/02 13:22:37;;;;;;;21.37;16.93;;;43.00;1.00;;;;;;6269268;22;20399;-44
2023/10/02 13:25:04;;;;;;;18.97;16.97;;;43.20;1.00;;;;;;6274096;22;20624;-40
2023/10/02 13:27:33;;;;;;;24.10;18.37;;;43.10;1.00;;;;;;6273264;22;20862;-39
2023/10/02 13:29:59;;;;;;;23.40;17.60;;;42.90;1.00;;;;;;6274299;22;20844;-41
2023/10/02 13:32:26;;;;;;;20.37;16.60;;;42.80;1.00;;;;;;6272978;22;20387;-45
2023/10/02 13:34:54;;;;;;;21.90;16.27;;;42.70;1.00;;;;;;6274211;22;20382;-44
2023/10/02 13:37:20;;;;;;;18.50;15.47;;;42.50;1.00;;;;;;6274073;22;20678;-42
2023/10/02 13:39:47;;;;;;;15.77;14.13;;;42.50;1.00;;;;;;6272253;22;20536;-42
2023/10/02 13:42:14;;;;;;;16.17;14.43;;;42.70;1.00;;;;;;6271228;22;20399;-40
2023/10/02 13:44:40;;;;;;;17.10;15.33;;;42.80;1.00;;;;;;6273045;22;20433;-42
2023/10/02 13:47:06;;;;;;;16.43;13.80;;;42.90;1.00;;;;;;6269725;22;20740;-41
2023/10/02 13:49:31;;;;;;;14.67;13.07;;;42.70;1.00;;;;;;6273052;22;20160;-41
2023/10/02 13:51:57;;;;;;;15.87;13.00;;;42.70;1.00;;;;;;6271859;22;20185;-40
2023/10/02 13:54:23;;;;;;;16.90;12.57;;;42.70;1.00;;;;;;6271793;22;20156;-41
2023/10/02 13:56:48;;;;;;;17.20;13.40;;;42.60;1.00;;;;;;6272438;22;20459;-40
2023/10/02 13:59:14;;;;;;;19.93;13.57;;;42.70;1.00;;;;;;6271552;22;20583;-40
2023/10/02 14:01:40;;;;;;;18.27;12.90;;;42.70;1.00;;;;;;6270360;22;20148;-44
2023/10/02 14:04:10;;;;;;;19.23;12.13;;;42.40;1.00;;;;;;6272190;22;20227;-41